Kiyosumi — JD3691 — position and weather

sailwx.info

Track history (hours):
 
Tides and Currents Weather Stations Pressure Air Temp Water Temp Dewpoint Dewpoint Depression Visibility Wind Speed Wind Dir Waves Ship Positions

Kiyosumi

Last reported at 2018-Jan-21 16:01 UTC. Time now 2018-Jan-21 16:28 UTC.
Position N 35°27' E 139°42'.

Length 34 m; draft 3.5 m.

Type: Tug. MMSI: 431005532.

Date/timePositionNaut miles runAvg speedWind from/ knotsBaromVisibWave heightAir tempDewpointWater temp
2018-Jan-21 16:01N 35°27' E 139°42'0 0.0
2018-Jan-21 15:31N 35°27' E 139°42'3 6.6
2018-Jan-21 15:01N 35°24' E 139°41'0 0.8
2018-Jan-21 14:31N 35°24' E 139°41'0 0.3
2018-Jan-21 14:00N 35°24' E 139°41'2 4.3
2018-Jan-21 13:30N 35°26' E 139°42'0 0.0
2018-Jan-21 13:00N 35°26' E 139°42'0 0.0
2018-Jan-21 12:30N 35°26' E 139°42'0 0.0
2018-Jan-21 12:00N 35°26' E 139°42'0 0.0
2018-Jan-21 11:29N 35°26' E 139°42'0 0.0
2018-Jan-21 11:01N 35°26' E 139°42'1 1.4
2018-Jan-21 10:30N 35°26' E 139°41'0 0.7
2018-Jan-21 10:00N 35°27' E 139°41'2 4.0
2018-Jan-21 09:30N 35°25' E 139°43'1 2.3
2018-Jan-21 09:01N 35°26' E 139°42'0 0.0
2018-Jan-21 08:31N 35°26' E 139°42'0 0.0
2018-Jan-21 08:00N 35°26' E 139°42'0 0.0
2018-Jan-21 07:30N 35°26' E 139°42'2 4.1
2018-Jan-21 07:00N 35°28' E 139°42'1 2.6
2018-Jan-21 06:31N 35°28' E 139°41'1 1.2
2018-Jan-21 06:00N 35°28' E 139°40'1 2.3
2018-Jan-21 05:30N 35°27' E 139°39'0 0.0
2018-Jan-21 05:00N 35°27' E 139°39'0 0.0
2018-Jan-21 04:30N 35°27' E 139°39'0 0.0
2018-Jan-21 04:00N 35°27' E 139°39'0 0.0
2018-Jan-21 03:30N 35°27' E 139°39'0 0.0
2018-Jan-21 03:00N 35°27' E 139°39'0 0.0
2018-Jan-21 02:30N 35°27' E 139°39'0 0.0
2018-Jan-21 02:00N 35°27' E 139°39'0 0.0
2018-Jan-21 01:30N 35°27' E 139°39'0 0.0
2018-Jan-21 01:00N 35°27' E 139°39'0 0.0
2018-Jan-21 00:30N 35°27' E 139°39'0 0.0
2018-Jan-20 23:58N 35°27' E 139°39'0 0.0
2018-Jan-20 23:31N 35°27' E 139°39'0 0.0
2018-Jan-20 23:00N 35°27' E 139°39'0 0.0
2018-Jan-20 22:31N 35°27' E 139°39'0 0.0
2018-Jan-20 22:00N 35°27' E 139°39'0 0.0
2018-Jan-20 21:30N 35°27' E 139°39'0 0.0
2018-Jan-20 21:00N 35°27' E 139°39'0 0.0
2018-Jan-20 20:30N 35°27' E 139°39'0 0.0
2018-Jan-20 20:00N 35°27' E 139°39'0 0.0
2018-Jan-20 19:30N 35°27' E 139°39'0 0.0
2018-Jan-20 19:00N 35°27' E 139°39'0 0.0
2018-Jan-20 18:30N 35°27' E 139°39'0 0.0
2018-Jan-20 18:00N 35°27' E 139°39'0 0.0
2018-Jan-20 17:31N 35°27' E 139°39'0 0.0
2018-Jan-20 17:00N 35°27' E 139°39'0 0.0
2018-Jan-20 16:30N 35°27' E 139°39'0 0.0
2018-Jan-20 16:00N 35°27' E 139°39'0 0.0
2018-Jan-20 15:30N 35°27' E 139°39'0 0.0
2018-Jan-20 15:00N 35°27' E 139°39'0 0.0
2018-Jan-20 14:30N 35°27' E 139°39'0 0.0
2018-Jan-20 14:00N 35°27' E 139°39'0 0.0
2018-Jan-20 13:30N 35°27' E 139°39'0 0.0
2018-Jan-20 13:00N 35°27' E 139°39'0 0.0
2018-Jan-20 12:31N 35°27' E 139°39'0 0.0
2018-Jan-20 12:00N 35°27' E 139°39'0 0.0
2018-Jan-20 11:30N 35°27' E 139°39'0 0.0
2018-Jan-20 11:00N 35°27' E 139°39'0 0.0
2018-Jan-20 10:31N 35°27' E 139°39'0 0.0
2018-Jan-20 10:00N 35°27' E 139°39'0 0.0
2018-Jan-20 09:30N 35°27' E 139°39'0 0.0
2018-Jan-20 09:00N 35°27' E 139°39'0 0.0
2018-Jan-20 08:31N 35°27' E 139°39'0 0.0
2018-Jan-20 08:00N 35°27' E 139°39'0 0.0
2018-Jan-20 07:30N 35°27' E 139°39'0 0.0
2018-Jan-20 07:00N 35°27' E 139°39'0 0.0
2018-Jan-20 06:30N 35°27' E 139°39'0 0.0
2018-Jan-20 06:00N 35°27' E 139°39'0 0.0
2018-Jan-20 05:30N 35°27' E 139°39'0 0.0
2018-Jan-20 05:00N 35°27' E 139°39'3 5.9
2018-Jan-20 04:31N 35°27' E 139°43'4 8.0
2018-Jan-20 04:00N 35°29' E 139°47'0 0.1
2018-Jan-20 03:30N 35°29' E 139°47'0 0.1
2018-Jan-20 03:00N 35°29' E 139°47'0 0.4
2018-Jan-20 02:25N 35°29' E 139°47'1 3.0
2018-Jan-20 02:00N 35°28' E 139°46'2 4.5
2018-Jan-20 01:30N 35°26' E 139°45'510.0
2018-Jan-20 01:00N 35°27' E 139°40'0 0.3
2018-Jan-20 00:30N 35°27' E 139°39'0 0.1
2018-Jan-20 00:00N 35°27' E 139°39'0 0.0
2018-Jan-19 23:30N 35°27' E 139°39'2 4.6
2018-Jan-19 23:00N 35°25' E 139°41'0 1.0
2018-Jan-19 22:30N 35°25' E 139°41'1 2.2
2018-Jan-19 22:00N 35°25' E 139°42'0 0.4
2018-Jan-19 21:30N 35°25' E 139°42'3 5.8
2018-Jan-19 21:00N 35°27' E 139°39'0 0.0
2018-Jan-19 20:30N 35°27' E 139°39'0 0.0
2018-Jan-19 20:00N 35°27' E 139°39'0 0.0
2018-Jan-19 19:30N 35°27' E 139°39'0 0.0
2018-Jan-19 19:01N 35°27' E 139°39'0 0.0
2018-Jan-19 18:30N 35°27' E 139°39'0 0.0
2018-Jan-19 18:00N 35°27' E 139°39'0 0.0
2018-Jan-19 17:30N 35°27' E 139°39'0 0.0
2018-Jan-19 17:00N 35°27' E 139°39'0 0.0
2018-Jan-19 16:31N 35°27' E 139°39'0 0.0
2018-Jan-19 16:00N 35°27' E 139°39'0 0.0
2018-Jan-19 15:30N 35°27' E 139°39'0 0.0
2018-Jan-19 15:00N 35°27' E 139°39'0 0.0
2018-Jan-19 14:31N 35°27' E 139°39'0 0.0
2018-Jan-19 14:00N 35°27' E 139°39'0 0.0
2018-Jan-19 13:31N 35°27' E 139°39'0 0.0
2018-Jan-19 13:00N 35°27' E 139°39'0 0.0
2018-Jan-19 12:31N 35°27' E 139°39'0 0.0
2018-Jan-19 12:00N 35°27' E 139°39'0 0.0
2018-Jan-19 11:31N 35°27' E 139°39'0 0.0
2018-Jan-19 11:00N 35°27' E 139°39'0 0.0
2018-Jan-19 10:30N 35°27' E 139°39'0 0.0
2018-Jan-19 10:01N 35°27' E 139°39'0 0.0
2018-Jan-19 09:31N 35°27' E 139°39'0 0.0
2018-Jan-19 09:01N 35°27' E 139°39'0 0.0
2018-Jan-19 08:30N 35°27' E 139°39'0 0.0
2018-Jan-19 08:01N 35°27' E 139°39'0 0.0
2018-Jan-19 07:31N 35°27' E 139°39'0 0.0
2018-Jan-19 07:00N 35°27' E 139°39'1 2.3
2018-Jan-19 06:31N 35°28' E 139°41'0 0.0
2018-Jan-19 06:00N 35°28' E 139°41'0 0.0
2018-Jan-19 05:31N 35°28' E 139°41'0 0.0
2018-Jan-19 05:00N 35°28' E 139°41'0 0.0
2018-Jan-19 04:30N 35°28' E 139°41'0 0.0
2018-Jan-19 04:00N 35°28' E 139°41'1 2.5
2018-Jan-19 03:30N 35°27' E 139°42'5 9.7
2018-Jan-19 03:00N 35°28' E 139°47'5 9.6
2018-Jan-19 02:30N 35°30' E 139°53'5 9.6
2018-Jan-19 02:00N 35°31' E 139°59'1 2.9
2018-Jan-19 01:31N 35°32' E 140°00'0 0.9
2018-Jan-19 01:00N 35°31' E 140°00'1 2.8
2018-Jan-19 00:31N 35°30' E 140°01'0 0.7
2018-Jan-19 00:00N 35°30' E 140°01'0 0.3
2018-Jan-18 23:30N 35°30' E 140°01'1 1.7
2018-Jan-18 23:00N 35°31' E 140°01'0 0.0
2018-Jan-18 22:31N 35°31' E 140°01'1 1.7
2018-Jan-18 22:00N 35°31' E 140°02'0 0.1
2018-Jan-18 21:31N 35°31' E 140°02'612.8
2018-Jan-18 21:00N 35°29' E 139°54'612.6
2018-Jan-18 20:30N 35°26' E 139°48'610.9
2018-Jan-18 20:00N 35°27' E 139°41'2 3.1
2018-Jan-18 19:30N 35°27' E 139°39'0 0.0
2018-Jan-18 07:15N 35°27' E 139°39'0 0.0
2018-Jan-18 07:00N 35°27' E 139°39'0 0.0
2018-Jan-18 06:30N 35°27' E 139°39'2 4.2
2018-Jan-18 06:00N 35°27' E 139°42'510.5
2018-Jan-18 05:30N 35°30' E 139°47'4 7.4
2018-Jan-18 05:01N 35°29' E 139°43'0 0.1
2018-Jan-18 04:30N 35°29' E 139°43'4 7.2
2018-Jan-18 04:00N 35°27' E 139°39'0 0.8
2018-Jan-18 03:30N 35°27' E 139°40'1 2.5
2018-Jan-18 03:00N 35°27' E 139°41'1 2.4
2018-Jan-18 02:30N 35°26' E 139°42'0 0.4
2018-Jan-18 02:00N 35°26' E 139°42'3 4.9
2018-Jan-18 01:30N 35°27' E 139°39'0 0.0
2018-Jan-18 01:01N 35°27' E 139°39'0 0.0
2018-Jan-18 00:00N 35°27' E 139°39'0 0.1
2018-Jan-17 23:58N 35°27' E 139°39'  
2018-Jan-12 15:01N 35°27' E 139°39'0 0.0
2018-Jan-12 14:31N 35°27' E 139°39'0 0.0
2018-Jan-12 14:00N 35°27' E 139°39'0 0.0
2018-Jan-12 13:31N 35°27' E 139°39'0 0.0
2018-Jan-12 13:00N 35°27' E 139°39'0 0.0
2018-Jan-12 12:31N 35°27' E 139°39'0 0.0
2018-Jan-12 12:01N 35°27' E 139°39'0 0.0
2018-Jan-12 11:31N 35°27' E 139°39'0 0.0
2018-Jan-12 11:01N 35°27' E 139°39'0 0.0
2018-Jan-12 10:31N 35°27' E 139°39'0 0.0
2018-Jan-12 10:01N 35°27' E 139°39'0 0.0
2018-Jan-12 09:30N 35°27' E 139°39'0 0.0
2018-Jan-12 09:00N 35°27' E 139°39'0 0.0
2018-Jan-12 08:30N 35°27' E 139°39'0 0.0
2018-Jan-12 08:01N 35°27' E 139°39'0 0.0
2018-Jan-12 07:31N 35°27' E 139°39'0 0.0
2018-Jan-12 07:01N 35°27' E 139°39'0 0.0
2018-Jan-12 06:31N 35°27' E 139°39'0 0.0
2018-Jan-12 06:01N 35°27' E 139°39'0 0.0
2018-Jan-12 05:30N 35°27' E 139°39'0 0.0
2018-Jan-12 05:01N 35°27' E 139°39'0 0.0
2018-Jan-12 04:31N 35°27' E 139°39'0 0.0
2018-Jan-12 04:01N 35°27' E 139°39'0 0.0
2018-Jan-12 03:30N 35°27' E 139°39'0 0.7
2018-Jan-12 03:00N 35°27' E 139°39'4 8.9
2018-Jan-12 02:31N 35°28' E 139°44'3 5.8
2018-Jan-12 02:00N 35°29' E 139°47'0 0.0
2018-Jan-12 01:30N 35°29' E 139°47'0 0.1
2018-Jan-12 01:00N 35°29' E 139°47'0 0.3
2018-Jan-12 00:31N 35°29' E 139°47'1 2.4
2018-Jan-12 00:00N 35°28' E 139°47'2 3.6
2018-Jan-11 23:30N 35°26' E 139°46'3 6.3
2018-Jan-11 23:01N 35°28' E 139°42'1 2.9
2018-Jan-11 22:30N 35°29' E 139°43'1 2.3
2018-Jan-11 22:00N 35°29' E 139°42'3 5.0
2018-Jan-11 21:31N 35°27' E 139°44'3 5.4
2018-Jan-11 21:00N 35°28' E 139°47'4 7.1
2018-Jan-11 20:30N 35°27' E 139°43'3 5.6
2018-Jan-11 20:00N 35°27' E 139°40'0 0.6
2018-Jan-11 19:30N 35°27' E 139°39'0 0.0
2018-Jan-11 19:01N 35°27' E 139°39'0 0.0
2018-Jan-11 18:31N 35°27' E 139°39'0 0.0
2018-Jan-11 18:01N 35°27' E 139°39'0 0.0
2018-Jan-11 17:30N 35°27' E 139°39'0 0.0
2018-Jan-11 17:00N 35°27' E 139°39'0 0.0
2018-Jan-11 16:30N 35°27' E 139°39'0 0.0
2018-Jan-11 16:01N 35°27' E 139°39'  
Track history (hours):
 
Tides and Currents Weather Stations Pressure Air Temp Water Temp Dewpoint Dewpoint Depression Visibility Wind Speed Wind Dir Waves Ship Positions

Kiyosumi

Last reported at 2018-Jan-21 16:01 UTC. Time now 2018-Jan-21 16:28 UTC.
Position N 35°27' E 139°42'.

Length 34 m; draft 3.5 m.

Type: Tug. MMSI: 431005532.

Date/timePositionNaut miles runAvg speedWind from/ knotsBaromVisibWave heightAir tempDewpointWater temp
2018-Jan-21 16:01N 35°27' E 139°42'0 0.0
2018-Jan-21 15:31N 35°27' E 139°42'3 6.6
2018-Jan-21 15:01N 35°24' E 139°41'0 0.8
2018-Jan-21 14:31N 35°24' E 139°41'0 0.3
2018-Jan-21 14:00N 35°24' E 139°41'2 4.3
2018-Jan-21 13:30N 35°26' E 139°42'0 0.0
2018-Jan-21 13:00N 35°26' E 139°42'0 0.0
2018-Jan-21 12:30N 35°26' E 139°42'0 0.0
2018-Jan-21 12:00N 35°26' E 139°42'0 0.0
2018-Jan-21 11:29N 35°26' E 139°42'0 0.0
2018-Jan-21 11:01N 35°26' E 139°42'1 1.4
2018-Jan-21 10:30N 35°26' E 139°41'0 0.7
2018-Jan-21 10:00N 35°27' E 139°41'2 4.0
2018-Jan-21 09:30N 35°25' E 139°43'1 2.3
2018-Jan-21 09:01N 35°26' E 139°42'0 0.0
2018-Jan-21 08:31N 35°26' E 139°42'0 0.0
2018-Jan-21 08:00N 35°26' E 139°42'0 0.0
2018-Jan-21 07:30N 35°26' E 139°42'2 4.1
2018-Jan-21 07:00N 35°28' E 139°42'1 2.6
2018-Jan-21 06:31N 35°28' E 139°41'1 1.2
2018-Jan-21 06:00N 35°28' E 139°40'1 2.3
2018-Jan-21 05:30N 35°27' E 139°39'0 0.0
2018-Jan-21 05:00N 35°27' E 139°39'0 0.0
2018-Jan-21 04:30N 35°27' E 139°39'0 0.0
2018-Jan-21 04:00N 35°27' E 139°39'0 0.0
2018-Jan-21 03:30N 35°27' E 139°39'0 0.0
2018-Jan-21 03:00N 35°27' E 139°39'0 0.0
2018-Jan-21 02:30N 35°27' E 139°39'0 0.0
2018-Jan-21 02:00N 35°27' E 139°39'0 0.0
2018-Jan-21 01:30N 35°27' E 139°39'0 0.0
2018-Jan-21 01:00N 35°27' E 139°39'0 0.0
2018-Jan-21 00:30N 35°27' E 139°39'0 0.0
2018-Jan-20 23:58N 35°27' E 139°39'0 0.0
2018-Jan-20 23:31N 35°27' E 139°39'0 0.0
2018-Jan-20 23:00N 35°27' E 139°39'0 0.0
2018-Jan-20 22:31N 35°27' E 139°39'0 0.0
2018-Jan-20 22:00N 35°27' E 139°39'0 0.0
2018-Jan-20 21:30N 35°27' E 139°39'0 0.0
2018-Jan-20 21:00N 35°27' E 139°39'0 0.0
2018-Jan-20 20:30N 35°27' E 139°39'0 0.0
2018-Jan-20 20:00N 35°27' E 139°39'0 0.0
2018-Jan-20 19:30N 35°27' E 139°39'0 0.0
2018-Jan-20 19:00N 35°27' E 139°39'0 0.0
2018-Jan-20 18:30N 35°27' E 139°39'0 0.0
2018-Jan-20 18:00N 35°27' E 139°39'0 0.0
2018-Jan-20 17:31N 35°27' E 139°39'0 0.0
2018-Jan-20 17:00N 35°27' E 139°39'0 0.0
2018-Jan-20 16:30N 35°27' E 139°39'0 0.0
2018-Jan-20 16:00N 35°27' E 139°39'0 0.0
2018-Jan-20 15:30N 35°27' E 139°39'0 0.0
2018-Jan-20 15:00N 35°27' E 139°39'0 0.0
2018-Jan-20 14:30N 35°27' E 139°39'0 0.0
2018-Jan-20 14:00N 35°27' E 139°39'0 0.0
2018-Jan-20 13:30N 35°27' E 139°39'0 0.0
2018-Jan-20 13:00N 35°27' E 139°39'0 0.0
2018-Jan-20 12:31N 35°27' E 139°39'0 0.0
2018-Jan-20 12:00N 35°27' E 139°39'0 0.0
2018-Jan-20 11:30N 35°27' E 139°39'0 0.0
2018-Jan-20 11:00N 35°27' E 139°39'0 0.0
2018-Jan-20 10:31N 35°27' E 139°39'0 0.0
2018-Jan-20 10:00N 35°27' E 139°39'0 0.0
2018-Jan-20 09:30N 35°27' E 139°39'0 0.0
2018-Jan-20 09:00N 35°27' E 139°39'0 0.0
2018-Jan-20 08:31N 35°27' E 139°39'0 0.0
2018-Jan-20 08:00N 35°27' E 139°39'0 0.0
2018-Jan-20 07:30N 35°27' E 139°39'0 0.0
2018-Jan-20 07:00N 35°27' E 139°39'0 0.0
2018-Jan-20 06:30N 35°27' E 139°39'0 0.0
2018-Jan-20 06:00N 35°27' E 139°39'0 0.0
2018-Jan-20 05:30N 35°27' E 139°39'0 0.0
2018-Jan-20 05:00N 35°27' E 139°39'3 5.9
2018-Jan-20 04:31N 35°27' E 139°43'4 8.0
2018-Jan-20 04:00N 35°29' E 139°47'0 0.1
2018-Jan-20 03:30N 35°29' E 139°47'0 0.1
2018-Jan-20 03:00N 35°29' E 139°47'0 0.4
2018-Jan-20 02:25N 35°29' E 139°47'1 3.0
2018-Jan-20 02:00N 35°28' E 139°46'2 4.5
2018-Jan-20 01:30N 35°26' E 139°45'510.0
2018-Jan-20 01:00N 35°27' E 139°40'0 0.3
2018-Jan-20 00:30N 35°27' E 139°39'0 0.1
2018-Jan-20 00:00N 35°27' E 139°39'0 0.0
2018-Jan-19 23:30N 35°27' E 139°39'2 4.6
2018-Jan-19 23:00N 35°25' E 139°41'0 1.0
2018-Jan-19 22:30N 35°25' E 139°41'1 2.2
2018-Jan-19 22:00N 35°25' E 139°42'0 0.4
2018-Jan-19 21:30N 35°25' E 139°42'3 5.8
2018-Jan-19 21:00N 35°27' E 139°39'0 0.0
2018-Jan-19 20:30N 35°27' E 139°39'0 0.0
2018-Jan-19 20:00N 35°27' E 139°39'0 0.0
2018-Jan-19 19:30N 35°27' E 139°39'0 0.0
2018-Jan-19 19:01N 35°27' E 139°39'0 0.0
2018-Jan-19 18:30N 35°27' E 139°39'0 0.0
2018-Jan-19 18:00N 35°27' E 139°39'0 0.0
2018-Jan-19 17:30N 35°27' E 139°39'0 0.0
2018-Jan-19 17:00N 35°27' E 139°39'0 0.0
2018-Jan-19 16:31N 35°27' E 139°39'0 0.0
2018-Jan-19 16:00N 35°27' E 139°39'0 0.0
2018-Jan-19 15:30N 35°27' E 139°39'0 0.0
2018-Jan-19 15:00N 35°27' E 139°39'0 0.0
2018-Jan-19 14:31N 35°27' E 139°39'0 0.0
2018-Jan-19 14:00N 35°27' E 139°39'0 0.0
2018-Jan-19 13:31N 35°27' E 139°39'0 0.0
2018-Jan-19 13:00N 35°27' E 139°39'0 0.0
2018-Jan-19 12:31N 35°27' E 139°39'0 0.0
2018-Jan-19 12:00N 35°27' E 139°39'0 0.0
2018-Jan-19 11:31N 35°27' E 139°39'0 0.0
2018-Jan-19 11:00N 35°27' E 139°39'0 0.0
2018-Jan-19 10:30N 35°27' E 139°39'0 0.0
2018-Jan-19 10:01N 35°27' E 139°39'0 0.0
2018-Jan-19 09:31N 35°27' E 139°39'0 0.0
2018-Jan-19 09:01N 35°27' E 139°39'0 0.0
2018-Jan-19 08:30N 35°27' E 139°39'0 0.0
2018-Jan-19 08:01N 35°27' E 139°39'0 0.0
2018-Jan-19 07:31N 35°27' E 139°39'0 0.0
2018-Jan-19 07:00N 35°27' E 139°39'1 2.3
2018-Jan-19 06:31N 35°28' E 139°41'0 0.0
2018-Jan-19 06:00N 35°28' E 139°41'0 0.0
2018-Jan-19 05:31N 35°28' E 139°41'0 0.0
2018-Jan-19 05:00N 35°28' E 139°41'0 0.0
2018-Jan-19 04:30N 35°28' E 139°41'0 0.0
2018-Jan-19 04:00N 35°28' E 139°41'1 2.5
2018-Jan-19 03:30N 35°27' E 139°42'5 9.7
2018-Jan-19 03:00N 35°28' E 139°47'5 9.6
2018-Jan-19 02:30N 35°30' E 139°53'5 9.6
2018-Jan-19 02:00N 35°31' E 139°59'1 2.9
2018-Jan-19 01:31N 35°32' E 140°00'0 0.9
2018-Jan-19 01:00N 35°31' E 140°00'1 2.8
2018-Jan-19 00:31N 35°30' E 140°01'0 0.7
2018-Jan-19 00:00N 35°30' E 140°01'0 0.3
2018-Jan-18 23:30N 35°30' E 140°01'1 1.7
2018-Jan-18 23:00N 35°31' E 140°01'0 0.0
2018-Jan-18 22:31N 35°31' E 140°01'1 1.7
2018-Jan-18 22:00N 35°31' E 140°02'0 0.1
2018-Jan-18 21:31N 35°31' E 140°02'612.8
2018-Jan-18 21:00N 35°29' E 139°54'612.6
2018-Jan-18 20:30N 35°26' E 139°48'610.9
2018-Jan-18 20:00N 35°27' E 139°41'2 3.1
2018-Jan-18 19:30N 35°27' E 139°39'0 0.0
2018-Jan-18 07:15N 35°27' E 139°39'0 0.0
2018-Jan-18 07:00N 35°27' E 139°39'0 0.0
2018-Jan-18 06:30N 35°27' E 139°39'2 4.2
2018-Jan-18 06:00N 35°27' E 139°42'510.5
2018-Jan-18 05:30N 35°30' E 139°47'4 7.4
2018-Jan-18 05:01N 35°29' E 139°43'0 0.1
2018-Jan-18 04:30N 35°29' E 139°43'4 7.2
2018-Jan-18 04:00N 35°27' E 139°39'0 0.8
2018-Jan-18 03:30N 35°27' E 139°40'1 2.5
2018-Jan-18 03:00N 35°27' E 139°41'1 2.4
2018-Jan-18 02:30N 35°26' E 139°42'0 0.4
2018-Jan-18 02:00N 35°26' E 139°42'3 4.9
2018-Jan-18 01:30N 35°27' E 139°39'0 0.0
2018-Jan-18 01:01N 35°27' E 139°39'0 0.0
2018-Jan-18 00:00N 35°27' E 139°39'0 0.1
2018-Jan-17 23:58N 35°27' E 139°39'  
2018-Jan-12 15:01N 35°27' E 139°39'0 0.0
2018-Jan-12 14:31N 35°27' E 139°39'0 0.0
2018-Jan-12 14:00N 35°27' E 139°39'0 0.0
2018-Jan-12 13:31N 35°27' E 139°39'0 0.0
2018-Jan-12 13:00N 35°27' E 139°39'0 0.0
2018-Jan-12 12:31N 35°27' E 139°39'0 0.0
2018-Jan-12 12:01N 35°27' E 139°39'0 0.0
2018-Jan-12 11:31N 35°27' E 139°39'0 0.0
2018-Jan-12 11:01N 35°27' E 139°39'0 0.0
2018-Jan-12 10:31N 35°27' E 139°39'0 0.0
2018-Jan-12 10:01N 35°27' E 139°39'0 0.0
2018-Jan-12 09:30N 35°27' E 139°39'0 0.0
2018-Jan-12 09:00N 35°27' E 139°39'0 0.0
2018-Jan-12 08:30N 35°27' E 139°39'0 0.0
2018-Jan-12 08:01N 35°27' E 139°39'0 0.0
2018-Jan-12 07:31N 35°27' E 139°39'0 0.0
2018-Jan-12 07:01N 35°27' E 139°39'0 0.0
2018-Jan-12 06:31N 35°27' E 139°39'0 0.0
2018-Jan-12 06:01N 35°27' E 139°39'0 0.0
2018-Jan-12 05:30N 35°27' E 139°39'0 0.0
2018-Jan-12 05:01N 35°27' E 139°39'0 0.0
2018-Jan-12 04:31N 35°27' E 139°39'0 0.0
2018-Jan-12 04:01N 35°27' E 139°39'0 0.0
2018-Jan-12 03:30N 35°27' E 139°39'0 0.7
2018-Jan-12 03:00N 35°27' E 139°39'4 8.9
2018-Jan-12 02:31N 35°28' E 139°44'3 5.8
2018-Jan-12 02:00N 35°29' E 139°47'0 0.0
2018-Jan-12 01:30N 35°29' E 139°47'0 0.1
2018-Jan-12 01:00N 35°29' E 139°47'0 0.3
2018-Jan-12 00:31N 35°29' E 139°47'1 2.4
2018-Jan-12 00:00N 35°28' E 139°47'2 3.6
2018-Jan-11 23:30N 35°26' E 139°46'3 6.3
2018-Jan-11 23:01N 35°28' E 139°42'1 2.9
2018-Jan-11 22:30N 35°29' E 139°43'1 2.3
2018-Jan-11 22:00N 35°29' E 139°42'3 5.0
2018-Jan-11 21:31N 35°27' E 139°44'3 5.4
2018-Jan-11 21:00N 35°28' E 139°47'4 7.1
2018-Jan-11 20:30N 35°27' E 139°43'3 5.6
2018-Jan-11 20:00N 35°27' E 139°40'0 0.6
2018-Jan-11 19:30N 35°27' E 139°39'0 0.0
2018-Jan-11 19:01N 35°27' E 139°39'0 0.0
2018-Jan-11 18:31N 35°27' E 139°39'0 0.0
2018-Jan-11 18:01N 35°27' E 139°39'0 0.0
2018-Jan-11 17:30N 35°27' E 139°39'0 0.0
2018-Jan-11 17:00N 35°27' E 139°39'0 0.0
2018-Jan-11 16:30N 35°27' E 139°39'0 0.0
2018-Jan-11 16:01N 35°27' E 139°39'  

Dump ship's entire track history